Etusivu
METAR-TAF:

METAR-TAF

Lentoasemat :

Kuwait, Kuwait

Kuwaitin kansainvälinen lentoasema

Leveyspiiri: 29-13N, Pituuspiiri: 047-59E, korkeus merenpinnasta: 55 m

Tämänhetkinen sää

Tämä raportti tehtiin 1 tunti ja 7 minuuttia sitten, kello 09.00 UTC
Tuuli 7 kn pohjoisen/luoteesta
Lämpötila 43°C
Kosteus 9%
Ilmanpaine 1006 hPa
Näkyvyys: 6000 m
selkeää

METAR: OKBK 270900Z 34007KT 6000 SKC 43/04 Q1006 NOSIG

Aika: 13:07 (10:07 UTC)

Sääennuste

Tämä raportti tehtiin 5 tuntia ja 22 minuuttia sitten, kello 04.45 UTC
Ennuste voimassa 27. päivästä klo 06 UTC - 28. päivään klo 12 UTC
Tuuli 8 kn pohjoisen/luoteesta puuskistuen 18 kn:hen
Näkyvyys: 7000 m

TAF: OKBK 270445Z 2706/2812 34008G18KT 7000 NSC

Säähavainnot ja -ennusteet yli 4000 lentoasemalta (METAR- ja TAF-raportit).

Käytössä olevat sääasemat on merkitty karttaan keltaisilla ja punaisilla pisteillä.

Aseta hiiri pisteen päälle nähdäksesi sääaseman nimen.

Klikkaa sitten nähdäksesi säähavainnot ja -ennusteet.

Kartan vaihtaminen: klikkaa mustalla rastilla varustettuja vihreitä pisteitä, niin voit zoomata sisään; viivalla varustettua vihreää pistettä, niin voit zoomata ulos tai vihreitä nuolia, niin pääset viereisille kartoille.


METAR-TAF: